sensor_id;sensor_type;location;lat;lon;timestamp;P1;durP1;ratioP1;P2;durP2;ratioP2
2872;SDS011;1444;49.166;7.312;2023-09-12T00:00:03;7.53;;;5.87;;
2872;SDS011;1444;49.166;7.312;2023-09-12T00:02:31;7.80;;;5.47;;
2872;SDS011;1444;49.166;7.312;2023-09-12T00:04:58;7.73;;;4.87;;
2872;SDS011;1444;49.166;7.312;2023-09-12T00:07:24;8.70;;;5.10;;
2872;SDS011;1444;49.166;7.312;2023-09-12T00:09:51;15.43;;;5.57;;
2872;SDS011;1444;49.166;7.312;2023-09-12T00:12:21;9.83;;;6.47;;
2872;SDS011;1444;49.166;7.312;2023-09-12T00:14:49;7.60;;;5.60;;
2872;SDS011;1444;49.166;7.312;2023-09-12T00:17:16;7.90;;;5.50;;
2872;SDS011;1444;49.166;7.312;2023-09-12T00:19:43;8.80;;;5.87;;
2872;SDS011;1444;49.166;7.312;2023-09-12T00:22:10;9.13;;;6.23;;
2872;SDS011;1444;49.166;7.312;2023-09-12T00:24:36;21.03;;;6.00;;
2872;SDS011;1444;49.166;7.312;2023-09-12T00:27:04;7.87;;;5.60;;
2872;SDS011;1444;49.166;7.312;2023-09-12T00:29:32;9.77;;;5.70;;
2872;SDS011;1444;49.166;7.312;2023-09-12T00:31:59;9.63;;;5.43;;
2872;SDS011;1444;49.166;7.312;2023-09-12T00:34:26;9.70;;;6.73;;
2872;SDS011;1444;49.166;7.312;2023-09-12T00:36:52;9.07;;;6.60;;
2872;SDS011;1444;49.166;7.312;2023-09-12T00:39:19;9.40;;;6.40;;
2872;SDS011;1444;49.166;7.312;2023-09-12T00:41:46;6.80;;;5.60;;
2872;SDS011;1444;49.166;7.312;2023-09-12T00:44:12;6.73;;;4.80;;
2872;SDS011;1444;49.166;7.312;2023-09-12T00:46:41;8.23;;;4.80;;
2872;SDS011;1444;49.166;7.312;2023-09-12T00:49:10;7.83;;;5.33;;
2872;SDS011;1444;49.166;7.312;2023-09-12T00:51:38;10.70;;;7.30;;
2872;SDS011;1444;49.166;7.312;2023-09-12T00:54:05;12.33;;;6.30;;
2872;SDS011;1444;49.166;7.312;2023-09-12T00:56:32;6.80;;;5.07;;
2872;SDS011;1444;49.166;7.312;2023-09-12T00:59:00;7.10;;;5.67;;
2872;SDS011;1444;49.166;7.312;2023-09-12T01:01:27;11.40;;;6.60;;
2872;SDS011;1444;49.166;7.312;2023-09-12T01:03:55;10.50;;;5.70;;
2872;SDS011;1444;49.166;7.312;2023-09-12T01:06:23;10.20;;;6.07;;
2872;SDS011;1444;49.166;7.312;2023-09-12T01:08:52;7.00;;;5.80;;
2872;SDS011;1444;49.166;7.312;2023-09-12T01:11:19;8.00;;;5.33;;
2872;SDS011;1444;49.166;7.312;2023-09-12T01:13:46;7.03;;;5.60;;
2872;SDS011;1444;49.166;7.312;2023-09-12T01:16:13;9.53;;;6.03;;
2872;SDS011;1444;49.166;7.312;2023-09-12T01:18:40;13.03;;;6.00;;
2872;SDS011;1444;49.166;7.312;2023-09-12T01:21:22;8.90;;;5.87;;
2872;SDS011;1444;49.166;7.312;2023-09-12T01:24:09;10.57;;;5.30;;
2872;SDS011;1444;49.166;7.312;2023-09-12T01:29:56;8.53;;;5.87;;
2872;SDS011;1444;49.166;7.312;2023-09-12T01:32:25;6.90;;;5.37;;
2872;SDS011;1444;49.166;7.312;2023-09-12T01:34:53;5.57;;;5.07;;
2872;SDS011;1444;49.166;7.312;2023-09-12T01:37:20;7.63;;;4.67;;
2872;SDS011;1444;49.166;7.312;2023-09-12T01:39:47;10.47;;;6.83;;
2872;SDS011;1444;49.166;7.312;2023-09-12T01:42:15;7.27;;;5.87;;
2872;SDS011;1444;49.166;7.312;2023-09-12T01:44:45;10.57;;;6.73;;
2872;SDS011;1444;49.166;7.312;2023-09-12T01:47:12;10.57;;;6.27;;
2872;SDS011;1444;49.166;7.312;2023-09-12T01:49:44;6.03;;;5.00;;
2872;SDS011;1444;49.166;7.312;2023-09-12T01:52:13;11.20;;;6.03;;
2872;SDS011;1444;49.166;7.312;2023-09-12T01:54:40;6.90;;;5.20;;
2872;SDS011;1444;49.166;7.312;2023-09-12T01:57:08;10.93;;;6.23;;
2872;SDS011;1444;49.166;7.312;2023-09-12T01:59:35;9.87;;;7.17;;
2872;SDS011;1444;49.166;7.312;2023-09-12T02:02:03;9.40;;;5.60;;
2872;SDS011;1444;49.166;7.312;2023-09-12T02:04:31;9.80;;;5.80;;
2872;SDS011;1444;49.166;7.312;2023-09-12T02:06:58;7.37;;;6.07;;
2872;SDS011;1444;49.166;7.312;2023-09-12T02:09:25;7.50;;;6.00;;
2872;SDS011;1444;49.166;7.312;2023-09-12T02:11:51;5.37;;;4.73;;
2872;SDS011;1444;49.166;7.312;2023-09-12T02:14:18;5.40;;;4.90;;
2872;SDS011;1444;49.166;7.312;2023-09-12T02:16:45;9.10;;;5.60;;
2872;SDS011;1444;49.166;7.312;2023-09-12T02:19:13;8.67;;;6.63;;
2872;SDS011;1444;49.166;7.312;2023-09-12T02:21:39;13.70;;;6.77;;
2872;SDS011;1444;49.166;7.312;2023-09-12T02:24:07;8.73;;;5.80;;
2872;SDS011;1444;49.166;7.312;2023-09-12T02:26:34;10.13;;;6.30;;
2872;SDS011;1444;49.166;7.312;2023-09-12T02:29:01;6.33;;;4.83;;
2872;SDS011;1444;49.166;7.312;2023-09-12T02:31:28;8.53;;;6.20;;
2872;SDS011;1444;49.166;7.312;2023-09-12T02:33:55;11.73;;;5.60;;
2872;SDS011;1444;49.166;7.312;2023-09-12T02:36:23;13.03;;;6.30;;
2872;SDS011;1444;49.166;7.312;2023-09-12T02:38:50;8.80;;;5.30;;
2872;SDS011;1444;49.166;7.312;2023-09-12T02:41:17;8.40;;;5.87;;
2872;SDS011;1444;49.166;7.312;2023-09-12T02:43:43;10.40;;;6.10;;
2872;SDS011;1444;49.166;7.312;2023-09-12T02:46:10;11.83;;;6.80;;
2872;SDS011;1444;49.166;7.312;2023-09-12T02:48:37;9.47;;;5.90;;
2872;SDS011;1444;49.166;7.312;2023-09-12T02:51:04;6.27;;;5.27;;
2872;SDS011;1444;49.166;7.312;2023-09-12T02:53:32;12.97;;;7.40;;
2872;SDS011;1444;49.166;7.312;2023-09-12T02:55:59;7.93;;;5.77;;
2872;SDS011;1444;49.166;7.312;2023-09-12T02:58:26;9.37;;;6.30;;
2872;SDS011;1444;49.166;7.312;2023-09-12T03:00:51;8.70;;;5.47;;
2872;SDS011;1444;49.166;7.312;2023-09-12T03:03:19;10.07;;;6.17;;
2872;SDS011;1444;49.166;7.312;2023-09-12T03:05:46;7.43;;;5.63;;
2872;SDS011;1444;49.166;7.312;2023-09-12T03:08:13;12.80;;;7.33;;
2872;SDS011;1444;49.166;7.312;2023-09-12T03:10:41;6.23;;;4.30;;
2872;SDS011;1444;49.166;7.312;2023-09-12T03:13:07;12.80;;;6.00;;
2872;SDS011;1444;49.166;7.312;2023-09-12T03:15:37;6.47;;;5.40;;
2872;SDS011;1444;49.166;7.312;2023-09-12T03:18:04;12.60;;;5.37;;
2872;SDS011;1444;49.166;7.312;2023-09-12T03:20:31;7.27;;;5.37;;
2872;SDS011;1444;49.166;7.312;2023-09-12T03:22:58;9.13;;;6.33;;
2872;SDS011;1444;49.166;7.312;2023-09-12T03:25:24;14.30;;;5.80;;
2872;SDS011;1444;49.166;7.312;2023-09-12T03:27:52;9.80;;;5.97;;
2872;SDS011;1444;49.166;7.312;2023-09-12T03:30:19;12.03;;;7.17;;
2872;SDS011;1444;49.166;7.312;2023-09-12T03:32:47;9.77;;;5.80;;
2872;SDS011;1444;49.166;7.312;2023-09-12T03:35:13;10.67;;;5.60;;
2872;SDS011;1444;49.166;7.312;2023-09-12T03:37:40;9.03;;;5.33;;
2872;SDS011;1444;49.166;7.312;2023-09-12T03:40:08;8.00;;;5.70;;
2872;SDS011;1444;49.166;7.312;2023-09-12T03:42:36;7.27;;;5.47;;
2872;SDS011;1444;49.166;7.312;2023-09-12T03:45:05;11.60;;;6.37;;
2872;SDS011;1444;49.166;7.312;2023-09-12T03:47:32;9.77;;;7.00;;
2872;SDS011;1444;49.166;7.312;2023-09-12T03:49:59;5.97;;;5.37;;
2872;SDS011;1444;49.166;7.312;2023-09-12T03:52:26;10.40;;;6.03;;
2872;SDS011;1444;49.166;7.312;2023-09-12T03:54:52;11.00;;;6.00;;
2872;SDS011;1444;49.166;7.312;2023-09-12T03:57:21;9.20;;;6.10;;
2872;SDS011;1444;49.166;7.312;2023-09-12T03:59:47;9.13;;;5.77;;
2872;SDS011;1444;49.166;7.312;2023-09-12T04:02:17;8.73;;;5.60;;
2872;SDS011;1444;49.166;7.312;2023-09-12T04:04:44;12.87;;;6.40;;
2872;SDS011;1444;49.166;7.312;2023-09-12T04:07:11;9.20;;;5.30;;
2872;SDS011;1444;49.166;7.312;2023-09-12T04:09:38;7.43;;;4.73;;
2872;SDS011;1444;49.166;7.312;2023-09-12T04:12:05;7.70;;;6.20;;
2872;SDS011;1444;49.166;7.312;2023-09-12T04:14:34;6.40;;;4.57;;
2872;SDS011;1444;49.166;7.312;2023-09-12T04:17:00;9.03;;;5.60;;
2872;SDS011;1444;49.166;7.312;2023-09-12T04:19:29;6.17;;;4.83;;
2872;SDS011;1444;49.166;7.312;2023-09-12T04:21:57;14.43;;;5.63;;
2872;SDS011;1444;49.166;7.312;2023-09-12T04:24:25;10.50;;;5.47;;
2872;SDS011;1444;49.166;7.312;2023-09-12T04:26:53;10.87;;;6.10;;
2872;SDS011;1444;49.166;7.312;2023-09-12T04:29:20;9.53;;;5.73;;
2872;SDS011;1444;49.166;7.312;2023-09-12T04:31:46;11.13;;;6.03;;
2872;SDS011;1444;49.166;7.312;2023-09-12T04:34:13;7.57;;;5.57;;
2872;SDS011;1444;49.166;7.312;2023-09-12T04:36:41;14.63;;;7.17;;
2872;SDS011;1444;49.166;7.312;2023-09-12T04:39:09;10.23;;;5.47;;
2872;SDS011;1444;49.166;7.312;2023-09-12T04:41:35;9.00;;;5.00;;
2872;SDS011;1444;49.166;7.312;2023-09-12T04:44:02;6.17;;;4.70;;
2872;SDS011;1444;49.166;7.312;2023-09-12T04:46:29;9.70;;;5.53;;
2872;SDS011;1444;49.166;7.312;2023-09-12T04:48:56;11.27;;;6.03;;
2872;SDS011;1444;49.166;7.312;2023-09-12T04:51:23;13.00;;;6.83;;
2872;SDS011;1444;49.166;7.312;2023-09-12T04:53:51;14.10;;;6.80;;
2872;SDS011;1444;49.166;7.312;2023-09-12T04:56:18;12.40;;;6.70;;
2872;SDS011;1444;49.166;7.312;2023-09-12T04:58:44;19.50;;;7.50;;
2872;SDS011;1444;49.166;7.312;2023-09-12T05:01:11;9.43;;;5.50;;
2872;SDS011;1444;49.166;7.312;2023-09-12T05:03:38;11.90;;;5.00;;
2872;SDS011;1444;49.166;7.312;2023-09-12T05:06:05;12.87;;;6.87;;
2872;SDS011;1444;49.166;7.312;2023-09-12T05:08:31;7.60;;;5.87;;
2872;SDS011;1444;49.166;7.312;2023-09-12T05:10:59;8.00;;;5.57;;
2872;SDS011;1444;49.166;7.312;2023-09-12T05:13:27;9.73;;;6.77;;
2872;SDS011;1444;49.166;7.312;2023-09-12T05:15:54;10.10;;;6.50;;
2872;SDS011;1444;49.166;7.312;2023-09-12T05:18:21;11.23;;;5.83;;
2872;SDS011;1444;49.166;7.312;2023-09-12T05:20:48;12.10;;;6.90;;
2872;SDS011;1444;49.166;7.312;2023-09-12T05:23:15;10.53;;;6.10;;
2872;SDS011;1444;49.166;7.312;2023-09-12T05:25:42;11.87;;;7.40;;
2872;SDS011;1444;49.166;7.312;2023-09-12T05:28:10;8.00;;;6.10;;
2872;SDS011;1444;49.166;7.312;2023-09-12T05:30:41;10.07;;;6.43;;
2872;SDS011;1444;49.166;7.312;2023-09-12T05:33:07;8.30;;;5.40;;
2872;SDS011;1444;49.166;7.312;2023-09-12T05:35:34;8.07;;;5.40;;
2872;SDS011;1444;49.166;7.312;2023-09-12T05:38:02;7.50;;;6.50;;
2872;SDS011;1444;49.166;7.312;2023-09-12T05:40:29;10.90;;;7.13;;
2872;SDS011;1444;49.166;7.312;2023-09-12T05:42:56;11.43;;;6.17;;
2872;SDS011;1444;49.166;7.312;2023-09-12T05:45:24;11.47;;;5.97;;
2872;SDS011;1444;49.166;7.312;2023-09-12T05:47:51;6.50;;;5.00;;
2872;SDS011;1444;49.166;7.312;2023-09-12T05:50:18;9.43;;;6.60;;
2872;SDS011;1444;49.166;7.312;2023-09-12T05:52:45;9.40;;;6.90;;
2872;SDS011;1444;49.166;7.312;2023-09-12T05:55:12;9.57;;;6.33;;
2872;SDS011;1444;49.166;7.312;2023-09-12T05:57:38;7.87;;;5.27;;
2872;SDS011;1444;49.166;7.312;2023-09-12T06:00:06;10.70;;;5.90;;
2872;SDS011;1444;49.166;7.312;2023-09-12T06:02:36;14.30;;;6.37;;
2872;SDS011;1444;49.166;7.312;2023-09-12T06:05:04;7.23;;;5.47;;
2872;SDS011;1444;49.166;7.312;2023-09-12T06:07:31;12.30;;;7.50;;
2872;SDS011;1444;49.166;7.312;2023-09-12T06:09:58;12.17;;;7.00;;
2872;SDS011;1444;49.166;7.312;2023-09-12T06:12:25;12.50;;;6.93;;
2872;SDS011;1444;49.166;7.312;2023-09-12T06:14:51;14.67;;;6.60;;
2872;SDS011;1444;49.166;7.312;2023-09-12T06:17:20;15.03;;;7.83;;
2872;SDS011;1444;49.166;7.312;2023-09-12T06:19:48;8.80;;;6.37;;
2872;SDS011;1444;49.166;7.312;2023-09-12T06:22:16;9.33;;;7.17;;
2872;SDS011;1444;49.166;7.312;2023-09-12T06:24:43;19.17;;;9.27;;
2872;SDS011;1444;49.166;7.312;2023-09-12T06:27:10;9.20;;;7.67;;
2872;SDS011;1444;49.166;7.312;2023-09-12T06:29:37;12.53;;;7.87;;
2872;SDS011;1444;49.166;7.312;2023-09-12T06:32:04;15.40;;;7.10;;
2872;SDS011;1444;49.166;7.312;2023-09-12T06:34:31;12.17;;;7.57;;
2872;SDS011;1444;49.166;7.312;2023-09-12T06:36:59;9.40;;;7.80;;
2872;SDS011;1444;49.166;7.312;2023-09-12T06:39:26;14.10;;;8.37;;
2872;SDS011;1444;49.166;7.312;2023-09-12T06:41:53;10.13;;;7.70;;
2872;SDS011;1444;49.166;7.312;2023-09-12T06:44:20;10.23;;;8.17;;
2872;SDS011;1444;49.166;7.312;2023-09-12T06:46:46;11.70;;;7.07;;
2872;SDS011;1444;49.166;7.312;2023-09-12T06:49:13;8.50;;;7.23;;
2872;SDS011;1444;49.166;7.312;2023-09-12T06:51:40;8.37;;;6.30;;
2872;SDS011;1444;49.166;7.312;2023-09-12T06:54:08;12.13;;;7.70;;
2872;SDS011;1444;49.166;7.312;2023-09-12T06:56:34;10.13;;;7.47;;
2872;SDS011;1444;49.166;7.312;2023-09-12T06:59:02;14.33;;;8.00;;
2872;SDS011;1444;49.166;7.312;2023-09-12T07:01:29;8.23;;;7.40;;
2872;SDS011;1444;49.166;7.312;2023-09-12T07:03:56;16.00;;;9.80;;
2872;SDS011;1444;49.166;7.312;2023-09-12T07:06:23;10.70;;;8.00;;
2872;SDS011;1444;49.166;7.312;2023-09-12T07:08:49;11.43;;;7.20;;
2872;SDS011;1444;49.166;7.312;2023-09-12T07:14:14;13.23;;;7.77;;
2872;SDS011;1444;49.166;7.312;2023-09-12T07:16:41;13.00;;;7.30;;
2872;SDS011;1444;49.166;7.312;2023-09-12T07:19:07;15.57;;;8.77;;
2872;SDS011;1444;49.166;7.312;2023-09-12T07:21:35;9.63;;;7.90;;
2872;SDS011;1444;49.166;7.312;2023-09-12T07:24:02;9.63;;;7.80;;
2872;SDS011;1444;49.166;7.312;2023-09-12T07:26:29;10.23;;;8.03;;
2872;SDS011;1444;49.166;7.312;2023-09-12T07:28:57;14.43;;;9.10;;
2872;SDS011;1444;49.166;7.312;2023-09-12T07:31:27;9.67;;;8.03;;
2872;SDS011;1444;49.166;7.312;2023-09-12T07:33:54;9.60;;;8.10;;
2872;SDS011;1444;49.166;7.312;2023-09-12T07:36:21;14.90;;;8.20;;
2872;SDS011;1444;49.166;7.312;2023-09-12T07:38:48;10.40;;;8.07;;
2872;SDS011;1444;49.166;7.312;2023-09-12T07:41:14;8.70;;;7.73;;
2872;SDS011;1444;49.166;7.312;2023-09-12T07:43:41;11.63;;;8.40;;
2872;SDS011;1444;49.166;7.312;2023-09-12T07:46:09;11.00;;;8.80;;
2872;SDS011;1444;49.166;7.312;2023-09-12T07:48:37;12.47;;;9.37;;
2872;SDS011;1444;49.166;7.312;2023-09-12T07:51:10;9.83;;;8.53;;
2872;SDS011;1444;49.166;7.312;2023-09-12T07:53:39;10.13;;;8.60;;
2872;SDS011;1444;49.166;7.312;2023-09-12T07:56:07;15.00;;;8.53;;
2872;SDS011;1444;49.166;7.312;2023-09-12T07:58:34;12.97;;;8.70;;
2872;SDS011;1444;49.166;7.312;2023-09-12T08:01:04;11.83;;;8.27;;
2872;SDS011;1444;49.166;7.312;2023-09-12T08:03:32;15.10;;;11.47;;
2872;SDS011;1444;49.166;7.312;2023-09-12T08:05:59;13.23;;;9.10;;
2872;SDS011;1444;49.166;7.312;2023-09-12T08:08:26;13.80;;;10.07;;
2872;SDS011;1444;49.166;7.312;2023-09-12T08:10:53;9.60;;;7.77;;
2872;SDS011;1444;49.166;7.312;2023-09-12T08:13:20;12.80;;;10.30;;
2872;SDS011;1444;49.166;7.312;2023-09-12T08:15:47;16.47;;;8.70;;
2872;SDS011;1444;49.166;7.312;2023-09-12T08:18:14;13.80;;;8.73;;
2872;SDS011;1444;49.166;7.312;2023-09-12T08:20:43;12.00;;;8.70;;
2872;SDS011;1444;49.166;7.312;2023-09-12T08:23:10;13.20;;;9.37;;
2872;SDS011;1444;49.166;7.312;2023-09-12T08:25:36;14.00;;;10.20;;
2872;SDS011;1444;49.166;7.312;2023-09-12T08:28:03;12.90;;;9.40;;
2872;SDS011;1444;49.166;7.312;2023-09-12T08:30:30;11.97;;;9.80;;
2872;SDS011;1444;49.166;7.312;2023-09-12T08:32:58;14.73;;;9.77;;
2872;SDS011;1444;49.166;7.312;2023-09-12T08:35:28;13.80;;;8.57;;
2872;SDS011;1444;49.166;7.312;2023-09-12T08:37:56;13.63;;;8.43;;
2872;SDS011;1444;49.166;7.312;2023-09-12T08:40:23;17.60;;;10.40;;
2872;SDS011;1444;49.166;7.312;2023-09-12T08:42:49;14.00;;;10.03;;
2872;SDS011;1444;49.166;7.312;2023-09-12T08:45:18;14.43;;;9.13;;
2872;SDS011;1444;49.166;7.312;2023-09-12T08:47:45;11.43;;;9.80;;
2872;SDS011;1444;49.166;7.312;2023-09-12T08:50:16;11.40;;;9.73;;
2872;SDS011;1444;49.166;7.312;2023-09-12T08:52:43;13.97;;;10.53;;
2872;SDS011;1444;49.166;7.312;2023-09-12T08:55:13;12.17;;;10.03;;
2872;SDS011;1444;49.166;7.312;2023-09-12T08:57:40;14.63;;;9.40;;
2872;SDS011;1444;49.166;7.312;2023-09-12T09:00:08;13.53;;;10.27;;
2872;SDS011;1444;49.166;7.312;2023-09-12T09:02:38;11.63;;;9.20;;
2872;SDS011;1444;49.166;7.312;2023-09-12T09:05:06;11.40;;;9.80;;
2872;SDS011;1444;49.166;7.312;2023-09-12T09:07:34;12.10;;;9.40;;
2872;SDS011;1444;49.166;7.312;2023-09-12T09:10:02;10.30;;;8.20;;
2872;SDS011;1444;49.166;7.312;2023-09-12T09:12:32;11.17;;;9.00;;
2872;SDS011;1444;49.166;7.312;2023-09-12T09:14:59;12.93;;;9.73;;
2872;SDS011;1444;49.166;7.312;2023-09-12T09:17:46;16.53;;;9.93;;
2872;SDS011;1444;49.166;7.312;2023-09-12T09:20:16;12.10;;;8.57;;
2872;SDS011;1444;49.166;7.312;2023-09-12T09:22:55;14.37;;;9.10;;
2872;SDS011;1444;49.166;7.312;2023-09-12T09:25:26;12.90;;;10.33;;
2872;SDS011;1444;49.166;7.312;2023-09-12T09:27:54;10.87;;;8.30;;
2872;SDS011;1444;49.166;7.312;2023-09-12T09:30:38;15.20;;;9.87;;
2872;SDS011;1444;49.166;7.312;2023-09-12T09:33:07;12.23;;;10.00;;
2872;SDS011;1444;49.166;7.312;2023-09-12T09:35:34;15.30;;;9.87;;
2872;SDS011;1444;49.166;7.312;2023-09-12T09:38:01;11.60;;;9.17;;
2872;SDS011;1444;49.166;7.312;2023-09-12T09:40:29;11.23;;;9.87;;
2872;SDS011;1444;49.166;7.312;2023-09-12T09:42:57;11.33;;;9.13;;
2872;SDS011;1444;49.166;7.312;2023-09-12T09:45:26;12.63;;;9.77;;
2872;SDS011;1444;49.166;7.312;2023-09-12T09:47:56;11.77;;;8.87;;
2872;SDS011;1444;49.166;7.312;2023-09-12T09:50:23;15.87;;;10.70;;
2872;SDS011;1444;49.166;7.312;2023-09-12T09:52:52;13.67;;;9.90;;
2872;SDS011;1444;49.166;7.312;2023-09-12T09:55:21;15.40;;;10.17;;
2872;SDS011;1444;49.166;7.312;2023-09-12T09:57:48;12.37;;;9.80;;
2872;SDS011;1444;49.166;7.312;2023-09-12T10:00:18;13.13;;;9.70;;
2872;SDS011;1444;49.166;7.312;2023-09-12T10:02:46;13.73;;;10.40;;
2872;SDS011;1444;49.166;7.312;2023-09-12T10:05:15;15.10;;;12.60;;
2872;SDS011;1444;49.166;7.312;2023-09-12T10:07:43;21.73;;;13.47;;
2872;SDS011;1444;49.166;7.312;2023-09-12T10:10:12;17.40;;;12.00;;
2872;SDS011;1444;49.166;7.312;2023-09-12T10:12:41;19.67;;;12.50;;
2872;SDS011;1444;49.166;7.312;2023-09-12T10:15:14;14.20;;;10.37;;
2872;SDS011;1444;49.166;7.312;2023-09-12T10:17:46;21.83;;;11.80;;
2872;SDS011;1444;49.166;7.312;2023-09-12T10:20:16;13.90;;;10.13;;
2872;SDS011;1444;49.166;7.312;2023-09-12T10:22:49;12.93;;;10.37;;
2872;SDS011;1444;49.166;7.312;2023-09-12T10:25:22;14.97;;;10.80;;
2872;SDS011;1444;49.166;7.312;2023-09-12T10:27:50;15.50;;;10.50;;
2872;SDS011;1444;49.166;7.312;2023-09-12T10:30:18;12.67;;;10.60;;
2872;SDS011;1444;49.166;7.312;2023-09-12T10:32:48;11.83;;;10.20;;
2872;SDS011;1444;49.166;7.312;2023-09-12T10:35:16;11.40;;;9.73;;
2872;SDS011;1444;49.166;7.312;2023-09-12T10:37:44;10.70;;;9.60;;
2872;SDS011;1444;49.166;7.312;2023-09-12T10:40:14;11.00;;;8.17;;
2872;SDS011;1444;49.166;7.312;2023-09-12T10:42:44;12.43;;;9.00;;
2872;SDS011;1444;49.166;7.312;2023-09-12T10:45:11;13.93;;;9.70;;
2872;SDS011;1444;49.166;7.312;2023-09-12T10:47:38;10.63;;;8.80;;
2872;SDS011;1444;49.166;7.312;2023-09-12T10:50:07;11.77;;;9.20;;
2872;SDS011;1444;49.166;7.312;2023-09-12T10:52:35;12.20;;;10.10;;
2872;SDS011;1444;49.166;7.312;2023-09-12T10:55:05;11.23;;;9.63;;
2872;SDS011;1444;49.166;7.312;2023-09-12T10:57:32;10.50;;;9.47;;
2872;SDS011;1444;49.166;7.312;2023-09-12T11:00:09;11.93;;;9.93;;
2872;SDS011;1444;49.166;7.312;2023-09-12T11:02:37;9.57;;;8.30;;
2872;SDS011;1444;49.166;7.312;2023-09-12T11:05:05;10.53;;;9.53;;
2872;SDS011;1444;49.166;7.312;2023-09-12T11:07:56;12.77;;;9.40;;
2872;SDS011;1444;49.166;7.312;2023-09-12T11:10:23;9.33;;;7.80;;
2872;SDS011;1444;49.166;7.312;2023-09-12T11:12:51;10.07;;;8.70;;
2872;SDS011;1444;49.166;7.312;2023-09-12T11:15:19;10.07;;;7.77;;
2872;SDS011;1444;49.166;7.312;2023-09-12T11:17:49;10.50;;;8.83;;
2872;SDS011;1444;49.166;7.312;2023-09-12T11:20:27;10.90;;;8.83;;
2872;SDS011;1444;49.166;7.312;2023-09-12T11:23:18;15.03;;;9.07;;
2872;SDS011;1444;49.166;7.312;2023-09-12T11:25:46;13.73;;;9.87;;
2872;SDS011;1444;49.166;7.312;2023-09-12T11:28:13;9.17;;;8.20;;
2872;SDS011;1444;49.166;7.312;2023-09-12T11:30:54;10.50;;;8.10;;
2872;SDS011;1444;49.166;7.312;2023-09-12T11:33:22;9.83;;;7.93;;
2872;SDS011;1444;49.166;7.312;2023-09-12T11:35:52;13.00;;;9.00;;
2872;SDS011;1444;49.166;7.312;2023-09-12T11:38:27;9.60;;;8.60;;
2872;SDS011;1444;49.166;7.312;2023-09-12T11:40:55;8.87;;;8.07;;
2872;SDS011;1444;49.166;7.312;2023-09-12T11:43:23;11.50;;;8.57;;
2872;SDS011;1444;49.166;7.312;2023-09-12T11:45:51;12.60;;;8.70;;
2872;SDS011;1444;49.166;7.312;2023-09-12T11:48:18;10.87;;;8.57;;
2872;SDS011;1444;49.166;7.312;2023-09-12T11:50:49;8.50;;;7.70;;
2872;SDS011;1444;49.166;7.312;2023-09-12T11:53:20;12.77;;;8.30;;
2872;SDS011;1444;49.166;7.312;2023-09-12T11:55:50;8.40;;;7.60;;
2872;SDS011;1444;49.166;7.312;2023-09-12T11:58:19;10.50;;;8.43;;
2872;SDS011;1444;49.166;7.312;2023-09-12T12:00:47;10.07;;;8.83;;
2872;SDS011;1444;49.166;7.312;2023-09-12T12:03:14;14.90;;;9.40;;
2872;SDS011;1444;49.166;7.312;2023-09-12T12:05:41;9.00;;;8.03;;
2872;SDS011;1444;49.166;7.312;2023-09-12T12:08:09;12.10;;;8.07;;
2872;SDS011;1444;49.166;7.312;2023-09-12T12:10:38;10.67;;;8.70;;
2872;SDS011;1444;49.166;7.312;2023-09-12T12:13:06;9.93;;;9.00;;
2872;SDS011;1444;49.166;7.312;2023-09-12T12:15:37;11.50;;;9.33;;
2872;SDS011;1444;49.166;7.312;2023-09-12T12:18:04;14.17;;;9.60;;
2872;SDS011;1444;49.166;7.312;2023-09-12T12:20:30;11.73;;;8.83;;
2872;SDS011;1444;49.166;7.312;2023-09-12T12:22:57;16.50;;;9.40;;
2872;SDS011;1444;49.166;7.312;2023-09-12T12:25:24;12.13;;;8.40;;
2872;SDS011;1444;49.166;7.312;2023-09-12T12:27:52;9.20;;;7.60;;
2872;SDS011;1444;49.166;7.312;2023-09-12T12:30:20;9.53;;;8.53;;
2872;SDS011;1444;49.166;7.312;2023-09-12T12:32:46;11.10;;;9.60;;
2872;SDS011;1444;49.166;7.312;2023-09-12T12:35:17;10.73;;;9.60;;
2872;SDS011;1444;49.166;7.312;2023-09-12T12:37:44;10.87;;;8.60;;
2872;SDS011;1444;49.166;7.312;2023-09-12T12:40:11;10.67;;;8.40;;
2872;SDS011;1444;49.166;7.312;2023-09-12T12:42:39;7.73;;;6.93;;
2872;SDS011;1444;49.166;7.312;2023-09-12T12:45:11;19.60;;;11.40;;
2872;SDS011;1444;49.166;7.312;2023-09-12T12:47:39;9.67;;;8.23;;
2872;SDS011;1444;49.166;7.312;2023-09-12T12:50:10;9.77;;;8.77;;
2872;SDS011;1444;49.166;7.312;2023-09-12T12:52:37;12.83;;;8.57;;
2872;SDS011;1444;49.166;7.312;2023-09-12T12:55:05;10.97;;;9.20;;
2872;SDS011;1444;49.166;7.312;2023-09-12T12:57:35;9.33;;;8.10;;
2872;SDS011;1444;49.166;7.312;2023-09-12T13:00:04;11.57;;;7.73;;
2872;SDS011;1444;49.166;7.312;2023-09-12T13:02:34;11.87;;;8.60;;
2872;SDS011;1444;49.166;7.312;2023-09-12T13:05:01;14.00;;;8.00;;
2872;SDS011;1444;49.166;7.312;2023-09-12T13:07:28;9.97;;;7.83;;
2872;SDS011;1444;49.166;7.312;2023-09-12T13:09:54;8.23;;;7.43;;
2872;SDS011;1444;49.166;7.312;2023-09-12T13:12:21;7.90;;;7.10;;
2872;SDS011;1444;49.166;7.312;2023-09-12T13:14:48;7.00;;;6.30;;
2872;SDS011;1444;49.166;7.312;2023-09-12T13:17:15;7.90;;;7.10;;
2872;SDS011;1444;49.166;7.312;2023-09-12T13:19:43;8.70;;;7.90;;
2872;SDS011;1444;49.166;7.312;2023-09-12T13:22:10;8.23;;;7.43;;
2872;SDS011;1444;49.166;7.312;2023-09-12T13:24:37;7.53;;;6.73;;
2872;SDS011;1444;49.166;7.312;2023-09-12T13:27:04;7.60;;;6.80;;
2872;SDS011;1444;49.166;7.312;2023-09-12T13:29:31;13.73;;;7.87;;
2872;SDS011;1444;49.166;7.312;2023-09-12T13:31:57;10.20;;;7.90;;
2872;SDS011;1444;49.166;7.312;2023-09-12T13:34:24;13.50;;;7.87;;
2872;SDS011;1444;49.166;7.312;2023-09-12T13:36:52;11.47;;;8.43;;
2872;SDS011;1444;49.166;7.312;2023-09-12T13:39:19;8.87;;;7.97;;
2872;SDS011;1444;49.166;7.312;2023-09-12T13:41:45;7.97;;;7.17;;
2872;SDS011;1444;49.166;7.312;2023-09-12T13:44:12;8.77;;;7.67;;
2872;SDS011;1444;49.166;7.312;2023-09-12T13:46:39;8.70;;;8.00;;
2872;SDS011;1444;49.166;7.312;2023-09-12T13:49:09;7.70;;;6.90;;
2872;SDS011;1444;49.166;7.312;2023-09-12T13:51:35;8.33;;;7.23;;
2872;SDS011;1444;49.166;7.312;2023-09-12T13:54:04;12.53;;;9.33;;
2872;SDS011;1444;49.166;7.312;2023-09-12T13:56:31;12.40;;;8.47;;
2872;SDS011;1444;49.166;7.312;2023-09-12T13:59:00;8.20;;;6.70;;
2872;SDS011;1444;49.166;7.312;2023-09-12T14:01:30;8.27;;;7.37;;
2872;SDS011;1444;49.166;7.312;2023-09-12T14:03:57;10.50;;;8.60;;
2872;SDS011;1444;49.166;7.312;2023-09-12T14:06:24;9.50;;;6.60;;
2872;SDS011;1444;49.166;7.312;2023-09-12T14:08:51;8.23;;;7.53;;
2872;SDS011;1444;49.166;7.312;2023-09-12T14:11:19;9.20;;;7.30;;
2872;SDS011;1444;49.166;7.312;2023-09-12T14:13:46;12.87;;;8.60;;
2872;SDS011;1444;49.166;7.312;2023-09-12T14:16:13;8.73;;;7.40;;
2872;SDS011;1444;49.166;7.312;2023-09-12T14:18:39;9.80;;;7.50;;
2872;SDS011;1444;49.166;7.312;2023-09-12T14:21:06;8.13;;;7.30;;
2872;SDS011;1444;49.166;7.312;2023-09-12T14:23:33;8.40;;;7.50;;
2872;SDS011;1444;49.166;7.312;2023-09-12T14:26:02;7.17;;;6.57;;
2872;SDS011;1444;49.166;7.312;2023-09-12T14:28:30;18.23;;;7.67;;
2872;SDS011;1444;49.166;7.312;2023-09-12T14:30:59;12.47;;;8.00;;
2872;SDS011;1444;49.166;7.312;2023-09-12T14:33:29;10.23;;;7.90;;
2872;SDS011;1444;49.166;7.312;2023-09-12T14:35:56;8.53;;;7.73;;
2872;SDS011;1444;49.166;7.312;2023-09-12T14:38:22;8.30;;;7.50;;
2872;SDS011;1444;49.166;7.312;2023-09-12T14:40:49;8.63;;;7.50;;
2872;SDS011;1444;49.166;7.312;2023-09-12T14:43:18;9.47;;;6.63;;
2872;SDS011;1444;49.166;7.312;2023-09-12T14:45:46;10.57;;;9.00;;
2872;SDS011;1444;49.166;7.312;2023-09-12T14:48:13;9.13;;;7.23;;
2872;SDS011;1444;49.166;7.312;2023-09-12T14:50:39;9.37;;;6.67;;
2872;SDS011;1444;49.166;7.312;2023-09-12T14:53:06;10.10;;;9.20;;
2872;SDS011;1444;49.166;7.312;2023-09-12T14:55:33;10.53;;;7.00;;
2872;SDS011;1444;49.166;7.312;2023-09-12T14:58:00;11.87;;;8.50;;
2872;SDS011;1444;49.166;7.312;2023-09-12T15:00:26;9.17;;;8.07;;
2872;SDS011;1444;49.166;7.312;2023-09-12T15:02:57;14.10;;;8.50;;
2872;SDS011;1444;49.166;7.312;2023-09-12T15:05:24;15.20;;;8.20;;
2872;SDS011;1444;49.166;7.312;2023-09-12T15:07:51;11.87;;;7.70;;
2872;SDS011;1444;49.166;7.312;2023-09-12T15:10:18;9.17;;;8.33;;
2872;SDS011;1444;49.166;7.312;2023-09-12T15:12:45;9.20;;;8.40;;
2872;SDS011;1444;49.166;7.312;2023-09-12T15:15:12;8.50;;;7.63;;